Time;durP1;ratioP1;P1;durP2;ratioP2;P2;SDS_P1;SDS_P2;PMS_P1;PMS_P2;Temp;Humidity;BMP_temperature;BMP_pressure;BME280_temperature;BME280_humidity;BME280_pressure;Samples;Min_cycle;Max_cycle;Signal;HPM_P1;HPM_P2
2022/03/30 00:02:25;;;;;;;32.92;19.08;;;;;;;7.11;89.55;100894.25;10378452;28;20077;-74
2022/03/30 00:07:31;;;;;;;35.67;19.58;;;;;;;7.00;89.85;100895.50;10376962;28;20042;-74
2022/03/30 00:12:33;;;;;;;25.58;18.63;;;;;;;6.93;89.72;100902.59;10375001;28;20033;-75
2022/03/30 00:17:34;;;;;;;40.47;19.85;;;;;;;6.76;90.70;100899.09;10376187;28;20034;-74
2022/03/30 00:22:34;;;;;;;29.30;18.20;;;;;;;6.73;89.58;100896.75;10377143;28;20467;-75
2022/03/30 00:27:35;;;;;;;31.38;18.77;;;;;;;6.65;91.00;100891.41;10375679;28;20382;-74
2022/03/30 00:32:35;;;;;;;30.42;18.05;;;;;;;6.53;92.11;100891.75;10375779;28;20038;-75
2022/03/30 00:37:36;;;;;;;24.58;16.45;;;;;;;6.52;91.81;100894.63;10375220;28;20113;-75
2022/03/30 00:42:36;;;;;;;33.47;17.95;;;;;;;6.51;91.51;100888.41;10375148;28;20121;-75
2022/03/30 00:47:37;;;;;;;32.83;17.65;;;;;;;6.45;92.08;100889.09;10375050;28;20041;-74
2022/03/30 00:52:38;;;;;;;31.35;17.02;;;;;;;6.37;91.70;100881.03;10374139;28;20092;-75
2022/03/30 00:57:38;;;;;;;29.13;16.98;;;;;;;6.31;92.10;100887.09;10376163;28;20050;-74
2022/03/30 01:02:39;;;;;;;33.55;18.20;;;;;;;6.23;92.47;100873.66;10374839;28;20458;-75
2022/03/30 01:07:40;;;;;;;33.97;18.63;;;;;;;6.10;92.98;100874.19;10373641;28;20057;-75
2022/03/30 01:12:40;;;;;;;28.55;17.45;;;;;;;6.04;92.84;100864.94;10358597;28;20030;-75
2022/03/30 01:17:41;;;;;;;24.17;15.52;;;;;;;5.86;93.95;100855.34;10378719;28;20038;-75
2022/03/30 01:22:42;;;;;;;22.52;15.80;;;;;;;5.77;93.53;100849.09;10374042;28;20037;-75
2022/03/30 01:27:42;;;;;;;39.47;19.77;;;;;;;5.65;94.13;100851.31;10358402;28;20033;-75
2022/03/30 01:32:42;;;;;;;31.00;18.45;;;;;;;5.53;95.01;100847.25;10377574;28;20037;-75
2022/03/30 01:37:43;;;;;;;29.58;18.15;;;;;;;5.43;94.92;100849.25;10382161;28;20042;-75
2022/03/30 01:42:43;;;;;;;34.30;18.02;;;;;;;5.35;94.68;100848.22;10382536;28;20038;-75
2022/03/30 01:47:48;;;;;;;31.70;19.70;;;;;;;5.20;96.56;100843.66;10382352;28;20066;-75
2022/03/30 01:52:49;;;;;;;24.45;17.60;;;;;;;5.17;94.20;100843.97;10381289;28;20064;-75
2022/03/30 01:57:49;;;;;;;30.88;17.88;;;;;;;5.09;94.14;100845.66;10381027;28;20064;-74
2022/03/30 02:02:50;;;;;;;33.67;17.42;;;;;;;4.96;95.27;100839.06;10384324;28;20037;-75
2022/03/30 02:07:50;;;;;;;29.35;17.58;;;;;;;4.88;94.77;100837.16;10384004;28;20085;-75
2022/03/30 02:12:51;;;;;;;40.80;20.23;;;;;;;4.81;95.71;100822.72;10382016;28;20450;-75
2022/03/30 02:17:51;;;;;;;27.83;19.23;;;;;;;4.66;96.16;100818.00;10383201;28;20125;-74
2022/03/30 02:22:52;;;;;;;31.70;20.40;;;;;;;4.64;97.81;100811.09;10381892;28;20025;-75
2022/03/30 02:27:52;;;;;;;29.20;20.73;;;;;;;4.64;98.05;100817.31;10382648;28;20393;-75
2022/03/30 02:32:53;;;;;;;29.85;17.98;;;;;;;4.61;98.29;100812.25;10383185;28;20038;-75
2022/03/30 02:37:55;;;;;;;32.83;19.45;;;;;;;4.54;98.90;100802.34;10381290;28;20041;-74
2022/03/30 02:42:56;;;;;;;44.15;23.08;;;;;;;4.51;99.57;100790.09;10384784;28;20416;-74
2022/03/30 02:53:16;;;;;;;42.50;20.58;;;;;;;4.45;99.66;100789.91;10379221;28;20038;-75
2022/03/30 02:58:16;;;;;;;27.98;19.90;;;;;;;4.43;100.00;100777.50;10378557;28;20100;-74
2022/03/30 03:03:16;;;;;;;40.47;22.60;;;;;;;4.46;100.00;100788.88;10363352;28;20034;-75
2022/03/30 03:08:17;;;;;;;47.20;20.98;;;;;;;4.47;100.00;100783.38;10377947;28;20503;-74
2022/03/30 03:13:17;;;;;;;38.58;22.08;;;;;;;4.47;100.00;100771.78;10378051;28;20608;-75
2022/03/30 03:18:18;;;;;;;37.78;20.75;;;;;;;4.53;99.58;100776.50;10379321;28;20065;-75
2022/03/30 03:23:19;;;;;;;32.55;18.85;;;;;;;4.54;96.60;100780.91;10361511;28;20140;-74
2022/03/30 03:28:19;;;;;;;42.72;21.35;;;;;;;4.42;94.84;100777.66;10378512;28;20049;-74
2022/03/30 03:33:19;;;;;;;34.70;20.42;;;;;;;4.34;94.15;100783.81;10378915;28;20045;-75
2022/03/30 03:38:20;;;;;;;27.55;18.70;;;;;;;4.29;93.61;100778.09;10375840;28;20034;-75
2022/03/30 03:43:20;;;;;;;43.10;22.77;;;;;;;4.33;99.18;100765.22;10380345;28;20037;-74
2022/03/30 03:48:20;;;;;;;50.85;21.55;;;;;;;4.41;100.00;100758.06;10378134;28;20053;-74
2022/03/30 03:53:21;;;;;;;40.85;21.08;;;;;;;4.53;100.00;100755.94;10378460;28;20061;-74
2022/03/30 03:58:21;;;;;;;30.17;19.13;;;;;;;4.61;100.00;100757.78;10379022;28;20033;-75
2022/03/30 04:03:22;;;;;;;39.50;20.73;;;;;;;4.74;99.57;100751.97;10380284;28;20034;-75
2022/03/30 04:08:22;;;;;;;27.63;18.80;;;;;;;4.74;97.78;100749.28;10378449;28;20136;-75
2022/03/30 04:13:23;;;;;;;37.30;19.05;;;;;;;4.59;96.68;100746.38;10378465;28;20125;-75
2022/03/30 04:18:23;;;;;;;40.67;19.13;;;;;;;4.49;95.04;100748.34;10378226;28;20045;-74
2022/03/30 04:23:24;;;;;;;33.38;19.27;;;;;;;4.33;93.72;100747.28;10376466;28;20070;-74
2022/03/30 04:28:24;;;;;;;42.75;19.65;;;;;;;4.17;93.40;100736.47;10374815;28;20406;-75
2022/03/30 04:33:25;;;;;;;43.33;22.98;;;;;;;4.11;93.50;100735.28;10374465;28;20156;-73
2022/03/30 04:38:25;;;;;;;38.55;21.33;;;;;;;4.05;92.96;100735.94;10374020;28;20045;-74
2022/03/30 04:43:27;;;;;;;37.22;19.25;;;;;;;3.95;92.70;100714.59;10377285;28;20037;-73
2022/03/30 04:48:27;;;;;;;43.10;20.45;;;;;;;3.89;92.37;100725.09;10377414;28;20108;-74
2022/03/30 04:53:28;;;;;;;40.78;22.42;;;;;;;3.84;92.32;100733.63;10376502;28;20549;-74
2022/03/30 04:58:30;;;;;;;42.05;22.15;;;;;;;3.77;91.83;100734.44;10374803;28;20076;-74
2022/03/30 05:03:30;;;;;;;38.25;21.63;;;;;;;3.69;91.55;100719.13;10375265;28;20105;-75
2022/03/30 05:08:30;;;;;;;33.25;21.98;;;;;;;3.59;91.50;100726.41;10380280;28;20056;-75
2022/03/30 05:13:31;;;;;;;41.38;21.00;;;;;;;3.50;91.13;100721.00;10382326;28;20104;-75
2022/03/30 05:18:31;;;;;;;39.05;19.75;;;;;;;3.47;92.08;100715.94;10382052;28;20135;-74
2022/03/30 05:23:32;;;;;;;38.70;21.33;;;;;;;3.50;92.15;100704.94;10382814;28;20026;-74
2022/03/30 05:28:32;;;;;;;37.35;22.50;;;;;;;3.49;92.34;100715.81;10383943;28;20462;-75
2022/03/30 05:33:33;;;;;;;40.50;22.25;;;;;;;3.53;92.48;100721.69;10381987;28;20131;-74
2022/03/30 05:38:34;;;;;;;40.92;24.38;;;;;;;3.52;93.48;100717.34;10382114;28;20034;-74
2022/03/30 05:43:34;;;;;;;52.88;24.67;;;;;;;3.51;96.46;100705.81;10381471;28;20076;-74
2022/03/30 05:48:35;;;;;;;72.60;30.50;;;;;;;3.58;99.82;100708.69;10382208;28;20034;-74
2022/03/30 05:53:35;;;;;;;45.65;25.10;;;;;;;3.70;98.79;100707.41;10365053;28;20365;-74
2022/03/30 05:58:36;;;;;;;41.53;21.65;;;;;;;3.82;96.29;100706.16;10381923;28;20128;-74
2022/03/30 06:03:37;;;;;;;48.92;25.25;;;;;;;3.92;95.60;100706.91;10380318;28;20030;-77
2022/03/30 06:08:38;;;;;;;39.95;24.95;;;;;;;4.09;94.80;100717.69;10381718;28;20061;-74
2022/03/30 06:13:39;;;;;;;34.00;25.45;;;;;;;4.30;93.98;100715.44;10381373;28;20041;-74
2022/03/30 06:18:40;;;;;;;44.88;24.45;;;;;;;4.90;94.41;100728.69;10379690;28;20452;-74
2022/03/30 06:23:40;;;;;;;40.10;25.20;;;;;;;5.44;94.90;100730.91;10379980;28;20037;-74
2022/03/30 06:28:41;;;;;;;46.92;23.35;;;;;;;5.50;93.65;100721.34;10378130;28;20034;-75
2022/03/30 06:33:41;;;;;;;38.97;24.35;;;;;;;6.14;94.91;100718.75;10379078;28;20042;-74
2022/03/30 06:38:44;;;;;;;39.13;21.00;;;;;;;6.80;95.52;100708.53;10379546;28;20034;-75
2022/03/30 06:43:46;;;;;;;37.53;21.38;;;;;;;7.44;94.91;100714.44;10396498;28;20050;-75
2022/03/30 06:48:47;;;;;;;45.63;18.83;;;;;;;7.25;94.51;100720.34;10377966;28;20466;-74
2022/03/30 06:53:47;;;;;;;39.70;18.05;;;;;;;6.80;92.73;100716.59;10376642;28;20089;-74
2022/03/30 06:58:48;;;;;;;36.47;19.35;;;;;;;8.04;92.30;100713.53;10378950;28;20049;-75
2022/03/30 07:03:50;;;;;;;46.13;18.63;;;;;;;9.26;89.15;100712.91;10377309;28;20065;-74
2022/03/30 07:14:10;;;;;;;23.58;16.50;;;;;;;10.70;87.65;100702.44;10376969;28;20046;-75
2022/03/30 07:19:10;;;;;;;41.30;16.98;;;;;;;10.20;87.51;100701.75;10377263;28;20046;-75
2022/03/30 07:24:10;;;;;;;28.30;13.80;;;;;;;11.07;87.61;100689.38;10378760;28;20065;-76
2022/03/30 07:29:11;;;;;;;37.70;16.65;;;;;;;11.85;84.59;100685.03;10375786;28;20041;-76
2022/03/30 07:34:12;;;;;;;33.03;16.65;;;;;;;12.39;81.61;100684.91;10376792;28;20121;-76
2022/03/30 07:39:12;;;;;;;41.22;13.40;;;;;;;12.53;72.34;100681.06;10377186;28;20042;-75
2022/03/30 07:44:14;;;;;;;25.75;15.05;;;;;;;12.58;69.84;100678.56;10375570;28;20129;-75
2022/03/30 07:49:15;;;;;;;22.48;12.13;;;;;;;12.63;66.97;100670.56;10375516;28;20486;-75
2022/03/30 07:54:16;;;;;;;28.58;14.10;;;;;;;12.72;65.50;100679.31;10359484;28;20420;-76
2022/03/30 07:59:16;;;;;;;24.50;13.50;;;;;;;12.71;66.59;100681.22;10375464;28;20038;-75
2022/03/30 08:04:17;;;;;;;19.05;12.27;;;;;;;13.35;67.56;100681.25;10375258;28;20092;-76
2022/03/30 08:09:17;;;;;;;18.70;11.55;;;;;;;13.37;60.35;100670.97;10374039;28;20390;-75
2022/03/30 08:14:17;;;;;;;12.52;11.30;;;;;;;13.43;64.65;100680.97;10375619;28;20088;-75
2022/03/30 08:19:18;;;;;;;17.15;10.48;;;;;;;14.31;65.35;100675.28;10375336;28;20073;-75
2022/03/30 08:24:20;;;;;;;18.02;10.30;;;;;;;14.61;65.53;100669.91;10374575;28;20095;-75
2022/03/30 08:29:21;;;;;;;17.80;10.70;;;;;;;14.41;61.88;100659.22;10375939;28;20045;-75
2022/03/30 08:34:21;;;;;;;11.07;8.93;;;;;;;13.36;60.15;100670.13;10376366;28;20033;-75
2022/03/30 08:39:22;;;;;;;13.45;9.23;;;;;;;12.93;62.06;100672.72;10374501;28;20046;-75
2022/03/30 08:44:22;;;;;;;16.48;10.20;;;;;;;12.38;65.48;100667.78;10374612;28;20042;-74
2022/03/30 08:49:22;;;;;;;14.85;10.10;;;;;;;11.82;65.94;100661.00;10375318;28;20030;-75
2022/03/30 08:54:23;;;;;;;19.48;12.00;;;;;;;11.30;68.27;100651.06;10374624;28;20062;-75
2022/03/30 08:59:23;;;;;;;18.38;10.48;;;;;;;10.76;70.79;100646.63;10374574;28;20073;-75
2022/03/30 09:04:25;;;;;;;26.92;12.38;;;;;;;11.15;71.73;100648.53;10372733;28;20068;-75
2022/03/30 09:09:30;;;;;;;19.88;9.48;;;;;;;11.32;70.66;100641.66;10374143;28;20049;-75
2022/03/30 09:14:31;;;;;;;11.00;7.15;;;;;;;11.34;69.09;100639.56;10372787;28;20029;-74
2022/03/30 09:19:36;;;;;;;12.02;7.03;;;;;;;11.86;67.34;100646.00;10373710;28;20466;-76
2022/03/30 09:24:37;;;;;;;8.90;5.40;;;;;;;12.90;64.88;100637.84;10375553;28;20084;-75
2022/03/30 09:29:38;;;;;;;5.93;5.07;;;;;;;12.45;62.15;100633.28;10372673;28;20038;-75
2022/03/30 09:34:49;;;;;;;7.65;5.65;;;;;;;11.97;65.78;100638.28;10375687;28;20034;-76
2022/03/30 09:39:50;;;;;;;5.63;4.80;;;;;;;11.86;65.67;100621.59;10356467;28;20080;-75
2022/03/30 09:44:51;;;;;;;18.83;5.53;;;;;;;12.19;64.68;100617.94;10372287;28;20038;-75
2022/03/30 09:49:53;;;;;;;6.97;5.25;;;;;;;11.90;65.16;100623.88;10372893;28;20025;-75
2022/03/30 09:54:55;;;;;;;11.68;5.75;;;;;;;12.78;63.02;100619.50;10360586;28;20026;-76
2022/03/30 09:59:58;;;;;;;5.15;3.88;;;;;;;12.32;63.39;100611.63;10380431;28;20038;-75
2022/03/30 10:04:59;;;;;;;7.05;5.70;;;;;;;13.20;60.68;100608.13;10379697;28;20038;-75
2022/03/30 10:10:00;;;;;;;6.97;4.65;;;;;;;13.47;60.37;100601.44;10378295;28;20054;-75
2022/03/30 10:15:00;;;;;;;7.70;5.55;;;;;;;12.74;60.15;100607.41;10380495;28;20036;-76
2022/03/30 10:20:02;;;;;;;6.22;5.63;;;;;;;13.16;60.26;100613.16;10378477;28;20034;-76
2022/03/30 10:25:12;;;;;;;8.63;5.10;;;;;;;13.71;60.55;100607.88;10378944;28;20037;-76
2022/03/30 10:30:12;;;;;;;8.73;3.88;;;;;;;13.05;58.14;100605.75;10379371;28;20466;-75
2022/03/30 10:35:13;;;;;;;6.25;5.00;;;;;;;14.59;56.27;100601.19;10379419;28;20030;-76
2022/03/30 10:40:22;;;;;;;10.20;6.78;;;;;;;14.86;51.99;100596.16;10378209;28;20041;-75
2022/03/30 10:45:23;;;;;;;12.27;6.38;;;;;;;13.52;53.47;100605.34;10379260;28;20045;-75
2022/03/30 10:50:56;;;;;;;11.23;6.38;;;;;;;13.48;56.61;100599.53;10378238;28;20524;-75
2022/03/30 10:56:08;;;;;;;13.75;7.90;;;;;;;13.11;57.00;100599.41;10375351;28;20046;-76
2022/03/30 11:01:28;;;;;;;7.80;7.00;;;;;;;13.87;55.75;100584.66;10378262;28;20469;-75
2022/03/30 11:06:38;;;;;;;7.85;6.53;;;;;;;15.13;52.10;100573.09;10379357;28;20381;-75
2022/03/30 11:11:43;;;;;;;12.25;7.70;;;;;;;14.66;51.33;100562.94;10377538;28;20061;-75
2022/03/30 11:16:48;;;;;;;11.60;7.50;;;;;;;14.14;52.62;100546.25;10376232;28;20122;-75
2022/03/30 11:22:08;;;;;;;10.70;6.95;;;;;;;14.70;50.88;100536.03;10376757;28;20572;-75
2022/03/30 11:27:08;;;;;;;6.72;5.90;;;;;;;15.56;48.27;100523.63;10378325;28;20041;-76
2022/03/30 11:32:24;;;;;;;9.75;7.00;;;;;;;15.41;46.80;100526.00;10376937;28;20091;-75
2022/03/30 11:37:35;;;;;;;8.57;7.32;;;;;;;15.67;47.14;100524.72;10377469;28;20033;-75
2022/03/30 11:42:37;;;;;;;10.20;5.18;;;;;;;16.48;44.55;100520.84;10375698;28;20092;-76
2022/03/30 11:47:37;;;;;;;8.23;6.40;;;;;;;16.62;44.25;100521.34;10376553;28;20029;-75
2022/03/30 11:52:37;;;;;;;11.70;6.70;;;;;;;15.94;46.39;100525.81;10375661;28;20052;-76
2022/03/30 11:57:39;;;;;;;9.18;5.55;;;;;;;15.69;46.97;100507.00;10376019;28;20550;-75
2022/03/30 12:02:44;;;;;;;13.60;5.93;;;;;;;15.83;51.13;100513.03;10375922;28;20034;-75
2022/03/30 12:07:45;;;;;;;5.78;5.20;;;;;;;16.71;49.31;100499.91;10374328;28;20478;-76
2022/03/30 12:12:45;;;;;;;12.80;5.15;;;;;;;17.13;41.83;100494.03;10375588;28;20056;-76
2022/03/30 12:17:50;;;;;;;10.23;5.82;;;;;;;16.28;46.88;100493.16;10376173;28;20116;-76
2022/03/30 12:23:04;;;;;;;6.05;5.35;;;;;;;16.28;43.70;100480.31;10374872;28;20026;-76
2022/03/30 12:28:04;;;;;;;7.63;6.53;;;;;;;16.15;44.48;100474.34;10375219;28;20030;-76
2022/03/30 12:33:05;;;;;;;6.18;4.80;;;;;;;17.11;46.36;100464.19;10357782;28;20042;-76
2022/03/30 12:38:12;;;;;;;5.43;4.45;;;;;;;16.51;43.32;100467.59;10373559;28;20037;-76
2022/03/30 12:43:12;;;;;;;6.40;5.60;;;;;;;15.08;44.81;100465.53;10373481;28;20465;-75
2022/03/30 12:48:13;;;;;;;7.07;5.40;;;;;;;14.87;45.71;100460.69;10374602;28;20046;-76
2022/03/30 12:53:17;;;;;;;7.10;4.40;;;;;;;15.92;48.89;100450.66;10373238;28;20066;-76
2022/03/30 12:58:24;;;;;;;5.43;4.55;;;;;;;16.27;50.23;100440.41;10375458;28;20038;-76
2022/03/30 13:03:29;;;;;;;10.15;5.13;;;;;;;15.28;43.51;100439.78;10375182;28;20034;-76
2022/03/30 13:08:29;;;;;;;6.43;4.97;;;;;;;14.04;46.99;100429.72;10358332;28;20042;-76
2022/03/30 13:13:31;;;;;;;10.57;4.65;;;;;;;14.45;48.57;100425.28;10375130;28;20081;-76
2022/03/30 13:18:32;;;;;;;4.65;4.25;;;;;;;14.77;49.31;100420.41;10372888;28;20045;-76
2022/03/30 13:23:48;;;;;;;8.80;4.30;;;;;;;14.72;50.25;100412.09;10374977;28;20037;-76
2022/03/30 13:28:48;;;;;;;5.25;4.35;;;;;;;14.53;49.48;100414.09;10378322;28;20109;-75
2022/03/30 13:33:50;;;;;;;4.78;4.38;;;;;;;14.02;50.24;100410.06;10382998;28;20497;-76
2022/03/30 13:38:52;;;;;;;5.10;4.30;;;;;;;13.82;51.85;100409.53;10383479;28;20048;-76
2022/03/30 13:43:53;;;;;;;4.13;3.70;;;;;;;14.25;50.55;100400.28;10364770;28;20088;-76
2022/03/30 13:48:53;;;;;;;11.65;3.92;;;;;;;14.62;49.54;100400.97;10380136;28;20436;-76
2022/03/30 13:53:54;;;;;;;4.95;4.53;;;;;;;13.98;50.13;100389.81;10381369;28;20053;-75
2022/03/30 13:58:55;;;;;;;7.35;4.80;;;;;;;14.06;50.62;100383.19;10381424;28;20495;-75
2022/03/30 14:03:55;;;;;;;4.15;3.80;;;;;;;14.37;50.16;100387.50;10381259;28;20036;-76
2022/03/30 14:08:56;;;;;;;6.50;3.65;;;;;;;14.61;50.99;100383.78;10379327;28;20041;-75
2022/03/30 14:13:56;;;;;;;5.00;3.83;;;;;;;14.34;48.85;100387.97;10379407;28;20057;-75
2022/03/30 14:18:56;;;;;;;5.20;3.75;;;;;;;14.01;49.47;100380.31;10378698;28;20045;-75
2022/03/30 14:23:57;;;;;;;6.07;3.85;;;;;;;14.36;50.53;100375.78;10378914;28;20029;-77
2022/03/30 14:28:57;;;;;;;5.95;4.50;;;;;;;14.38;47.49;100365.47;10379813;28;20482;-75
2022/03/30 14:33:58;;;;;;;10.43;3.53;;;;;;;14.52;50.20;100368.03;10380131;28;20064;-75
2022/03/30 14:38:58;;;;;;;4.10;3.00;;;;;;;14.61;46.01;100348.34;10378967;28;20065;-76
2022/03/30 14:43:58;;;;;;;8.38;3.92;;;;;;;13.43;47.86;100357.28;10380214;28;20073;-75
2022/03/30 14:49:00;;;;;;;6.57;4.45;;;;;;;13.22;50.81;100343.09;10378849;28;20042;-75
2022/03/30 14:54:01;;;;;;;4.15;3.63;;;;;;;13.32;49.65;100352.63;10378532;28;20496;-76
2022/03/30 14:59:03;;;;;;;6.93;4.47;;;;;;;12.97;49.01;100340.47;10378145;28;20072;-75
2022/03/30 15:04:04;;;;;;;5.43;4.57;;;;;;;12.32;52.01;100343.66;10377698;28;20088;-75
2022/03/30 15:09:04;;;;;;;5.18;3.97;;;;;;;12.74;51.21;100333.00;10377096;28;20077;-76
2022/03/30 15:14:05;;;;;;;4.22;3.30;;;;;;;12.81;50.87;100327.50;10378797;28;20065;-76
2022/03/30 15:19:06;;;;;;;5.15;3.65;;;;;;;12.74;51.40;100319.41;10377741;28;20092;-76
2022/03/30 15:24:07;;;;;;;4.28;3.95;;;;;;;12.85;50.10;100312.38;10376274;28;20071;-75
2022/03/30 15:29:10;;;;;;;4.97;4.50;;;;;;;12.72;50.77;100323.41;10376891;28;20065;-75
2022/03/30 15:34:10;;;;;;;8.32;4.22;;;;;;;12.08;51.47;100317.34;10377061;28;20037;-75
2022/03/30 15:39:11;;;;;;;6.30;4.05;;;;;;;12.02;52.90;100318.22;10376798;28;20030;-75
2022/03/30 15:44:12;;;;;;;4.50;4.20;;;;;;;12.11;53.39;100319.63;10377059;28;20091;-76
2022/03/30 15:49:12;;;;;;;12.38;3.75;;;;;;;12.05;52.68;100317.78;10376407;28;20050;-76
2022/03/30 15:54:12;;;;;;;5.60;3.83;;;;;;;11.98;53.54;100311.59;10374569;28;20095;-76
2022/03/30 15:59:13;;;;;;;3.35;3.05;;;;;;;11.53;54.45;100315.22;10375284;28;20030;-75
2022/03/30 16:04:13;;;;;;;3.95;3.55;;;;;;;10.86;56.41;100301.16;10376758;28;20033;-76
2022/03/30 16:09:14;;;;;;;2.53;2.33;;;;;;;10.99;56.41;100294.03;10376092;28;20065;-75
2022/03/30 16:14:14;;;;;;;3.80;2.72;;;;;;;11.02;56.39;100296.31;10375562;28;20450;-75
2022/03/30 16:19:15;;;;;;;4.80;3.47;;;;;;;11.04;56.31;100295.06;10374348;28;20041;-75
2022/03/30 16:24:18;;;;;;;2.95;2.70;;;;;;;10.81;56.65;100294.72;10375075;28;20045;-75
2022/03/30 16:29:20;;;;;;;6.07;3.95;;;;;;;10.69;57.45;100294.56;10359297;28;20030;-75
2022/03/30 16:34:20;;;;;;;18.05;3.80;;;;;;;10.46;58.40;100290.47;10376367;28;20030;-76
2022/03/30 16:39:25;;;;;;;4.22;3.47;;;;;;;10.33;58.40;100295.88;10374344;28;20466;-75
2022/03/30 16:44:26;;;;;;;7.30;3.90;;;;;;;10.37;58.25;100302.53;10374687;28;20033;-77
2022/03/30 16:49:26;;;;;;;10.55;3.83;;;;;;;10.15;58.40;100296.50;10374726;28;20049;-75
2022/03/30 16:54:30;;;;;;;2.63;2.42;;;;;;;10.11;58.67;100297.13;10358054;28;20053;-75
2022/03/30 16:59:30;;;;;;;7.55;3.67;;;;;;;9.77;59.55;100299.81;10374572;28;20030;-75
2022/03/30 17:04:31;;;;;;;4.13;3.72;;;;;;;9.54;60.19;100288.59;10381646;28;20383;-75
2022/03/30 17:14:50;;;;;;;3.08;2.83;;;;;;;9.35;61.62;100290.22;10383641;28;20069;-75
2022/03/30 17:19:52;;;;;;;3.53;3.22;;;;;;;9.36;61.75;100291.03;10383282;28;20066;-75
2022/03/30 17:24:53;;;;;;;4.72;4.20;;;;;;;9.10;62.31;100292.63;10380937;28;20117;-75
2022/03/30 17:29:53;;;;;;;8.82;4.85;;;;;;;9.02;62.90;100296.31;10363836;28;20034;-75
2022/03/30 17:34:54;;;;;;;6.82;3.60;;;;;;;8.99;63.45;100301.31;10381761;28;20050;-75
2022/03/30 17:39:59;;;;;;;6.75;2.28;;;;;;;8.81;64.28;100302.69;10381500;28;20038;-75
2022/03/30 17:45:00;;;;;;;4.40;3.55;;;;;;;8.66;64.98;100295.75;10382482;28;20052;-75
2022/03/30 17:55:21;;;;;;;3.10;2.92;;;;;;;8.46;64.63;100301.06;10380653;28;20042;-74
2022/03/30 18:00:30;;;;;;;12.15;3.05;;;;;;;8.42;65.00;100305.16;10380772;28;20037;-74
2022/03/30 18:05:31;;;;;;;4.90;2.20;;;;;;;8.45;65.35;100305.59;10382072;28;20042;-75
2022/03/30 18:10:31;;;;;;;3.40;2.20;;;;;;;8.31;65.19;100301.13;10379983;28;20135;-75
2022/03/30 18:15:31;;;;;;;5.55;2.58;;;;;;;8.23;65.26;100312.91;10377940;28;20030;-75
2022/03/30 18:20:32;;;;;;;2.63;2.33;;;;;;;8.12;65.52;100305.34;10378863;28;20037;-74
2022/03/30 18:25:36;;;;;;;5.05;2.83;;;;;;;8.05;65.87;100299.06;10382231;28;20069;-74
2022/03/30 18:30:37;;;;;;;8.05;2.78;;;;;;;8.07;65.56;100297.00;10365184;28;20374;-75
2022/03/30 18:35:38;;;;;;;3.22;2.22;;;;;;;8.07;65.47;100292.47;10380642;28;20034;-74
2022/03/30 18:40:39;;;;;;;3.72;2.30;;;;;;;7.88;65.60;100299.38;10379854;28;20053;-74
2022/03/30 18:45:40;;;;;;;4.18;2.17;;;;;;;7.76;66.18;100300.91;10379960;28;20462;-74
2022/03/30 18:50:40;;;;;;;2.78;2.58;;;;;;;7.65;65.58;100304.94;10380879;28;20084;-75
2022/03/30 18:55:43;;;;;;;1.70;1.60;;;;;;;7.57;65.96;100305.09;10380484;28;20425;-74
2022/03/30 19:00:44;;;;;;;6.82;1.98;;;;;;;7.50;66.12;100309.59;10378548;28;20046;-75
2022/03/30 19:05:45;;;;;;;2.35;2.25;;;;;;;7.59;65.98;100300.31;10378343;28;20037;-75
2022/03/30 19:10:46;;;;;;;6.82;2.35;;;;;;;7.62;66.23;100294.56;10378094;28;20496;-75
2022/03/30 19:15:46;;;;;;;3.25;1.92;;;;;;;7.63;66.32;100306.19;10377474;28;20060;-74
2022/03/30 19:20:48;;;;;;;7.95;3.13;;;;;;;7.63;66.43;100309.72;10376365;28;20033;-75
2022/03/30 19:25:53;;;;;;;3.15;2.35;;;;;;;7.60;66.48;100306.56;10377524;28;20057;-75
2022/03/30 19:30:53;;;;;;;1.88;1.77;;;;;;;7.58;66.98;100309.44;10377538;28;20037;-75
2022/03/30 19:35:54;;;;;;;4.22;2.60;;;;;;;7.51;68.08;100311.25;10376405;28;20066;-75
2022/03/30 19:40:54;;;;;;;2.75;2.42;;;;;;;7.35;69.81;100316.88;10378683;28;20037;-75
2022/03/30 19:45:54;;;;;;;3.85;2.53;;;;;;;7.21;71.41;100305.09;10377856;28;20076;-74
2022/03/30 19:50:55;;;;;;;2.55;2.33;;;;;;;7.16;73.14;100315.63;10376754;28;20457;-75
2022/03/30 19:55:56;;;;;;;2.78;2.13;;;;;;;6.99;75.28;100315.03;10375089;28;20107;-75
2022/03/30 20:00:56;;;;;;;2.85;2.65;;;;;;;6.79;76.81;100309.38;10377915;28;20044;-75
2022/03/30 20:05:57;;;;;;;8.43;2.72;;;;;;;6.71;77.90;100318.41;10376401;28;20446;-74
2022/03/30 20:10:57;;;;;;;6.55;2.67;;;;;;;6.63;78.46;100331.94;10376313;28;20046;-74
2022/03/30 20:15:57;;;;;;;6.75;2.38;;;;;;;6.47;79.31;100332.94;10358172;28;20026;-75
2022/03/30 20:20:58;;;;;;;4.15;2.50;;;;;;;6.40;79.14;100332.03;10375170;28;20030;-75
2022/03/30 20:25:59;;;;;;;4.57;2.28;;;;;;;6.31;81.04;100332.28;10376543;28;20041;-74
2022/03/30 20:30:59;;;;;;;4.00;2.95;;;;;;;6.20;81.56;100318.28;10375330;28;20484;-74
2022/03/30 20:36:00;;;;;;;6.55;2.35;;;;;;;6.13;82.30;100325.41;10357813;28;20161;-75
2022/03/30 20:41:00;;;;;;;15.65;3.00;;;;;;;5.96;83.71;100318.50;10375648;28;20034;-75
2022/03/30 20:46:00;;;;;;;3.28;2.90;;;;;;;5.80;85.61;100325.66;10375813;28;20416;-75
2022/03/30 20:51:08;;;;;;;8.50;3.28;;;;;;;5.66;86.78;100331.00;10375107;28;20117;-75
2022/03/30 20:56:09;;;;;;;6.47;4.10;;;;;;;5.63;86.54;100332.19;10377086;28;20030;-74
2022/03/30 21:01:09;;;;;;;9.40;3.20;;;;;;;5.62;86.74;100329.69;10375295;28;20045;-75
2022/03/30 21:06:10;;;;;;;4.10;2.70;;;;;;;5.49;87.68;100324.91;10374574;28;20398;-75
2022/03/30 21:11:11;;;;;;;17.88;4.18;;;;;;;5.39;88.06;100314.38;10376530;28;20054;-75
2022/03/30 21:16:12;;;;;;;3.15;2.85;;;;;;;5.32;86.99;100318.78;10374673;28;20030;-75
2022/03/30 21:21:12;;;;;;;14.20;3.38;;;;;;;5.17;86.47;100324.09;10374607;28;20057;-74
2022/03/30 21:26:13;;;;;;;3.47;2.92;;;;;;;5.08;86.53;100328.66;10374898;28;20034;-74
2022/03/30 21:31:13;;;;;;;3.72;3.33;;;;;;;4.96;87.06;100331.91;10374139;28;20026;-75
2022/03/30 21:36:14;;;;;;;4.53;2.88;;;;;;;5.07;86.81;100324.31;10374206;28;20080;-74
2022/03/30 21:41:15;;;;;;;3.95;3.53;;;;;;;5.09;86.70;100327.66;10374878;28;20033;-75
2022/03/30 21:46:15;;;;;;;4.25;3.95;;;;;;;4.93;88.13;100348.38;10374662;28;20049;-75
2022/03/30 21:51:16;;;;;;;6.88;3.72;;;;;;;4.85;88.29;100339.34;10379680;28;20442;-75
2022/03/30 21:56:16;;;;;;;6.30;3.63;;;;;;;4.76;89.47;100347.59;10382290;28;20034;-74
2022/03/30 22:01:17;;;;;;;6.25;3.30;;;;;;;4.63;90.07;100337.44;10380028;28;20069;-74
2022/03/30 22:06:17;;;;;;;5.72;2.80;;;;;;;4.65;91.39;100346.13;10385250;28;20060;-74
2022/03/30 22:11:18;;;;;;;2.42;2.22;;;;;;;4.49;94.05;100351.53;10387331;28;20129;-74
2022/03/30 22:16:20;;;;;;;2.90;2.70;;;;;;;4.49;93.62;100364.94;10384243;28;20033;-73
2022/03/30 22:21:20;;;;;;;8.00;3.50;;;;;;;4.50;94.26;100369.28;10381963;28;20025;-74
2022/03/30 22:26:22;;;;;;;2.78;2.63;;;;;;;4.25;96.90;100371.19;10380316;28;20405;-73
2022/03/30 22:36:41;;;;;;;2.13;2.03;;;;;;;3.60;99.69;100394.25;10378564;28;20026;-73
2022/03/30 22:41:42;;;;;;;2.53;2.33;;;;;;;3.45;100.00;100380.69;10379603;28;20041;-73
2022/03/30 22:46:42;;;;;;;2.70;2.50;;;;;;;3.34;100.00;100402.38;10362667;28;20041;-72
2022/03/30 22:51:43;;;;;;;3.97;2.88;;;;;;;3.14;100.00;100395.66;10380266;28;20038;-73
2022/03/30 22:56:43;;;;;;;2.78;2.58;;;;;;;3.08;100.00;100391.78;10378993;28;20029;-73
2022/03/30 23:01:46;;;;;;;2.33;2.22;;;;;;;2.75;100.00;100388.13;10378393;28;20466;-74
2022/03/30 23:12:06;;;;;;;2.92;2.67;;;;;;;2.48;100.00;100397.16;10379654;28;20137;-73
2022/03/30 23:17:06;;;;;;;4.63;2.65;;;;;;;2.52;100.00;100410.06;10382252;28;20041;-73
2022/03/30 23:22:07;;;;;;;3.20;2.95;;;;;;;2.53;100.00;100401.03;10381920;28;20064;-73
2022/03/30 23:27:07;;;;;;;2.88;2.63;;;;;;;2.48;100.00;100381.13;10379363;28;20042;-76
2022/03/30 23:32:09;;;;;;;2.70;2.60;;;;;;;2.43;100.00;100378.09;10378898;28;20034;-76